Lecompte, Louisiana
Current Conditions -  °F | °C
As of 8:53 PM on Friday 21 Nov 2014 (Local Time) from KAEX Reporting Station
Overcast Overcast  
Wind Chill: 62°   Ceiling: 9500
Heat Index: 62°   Visibility: 10mi
Dew Point: 49°   Wind: 9mph
Humidity: 62%   Direction: 140°SE
Pressure: 30.23"   Gusts: NA
Location:  31.09°N, 92.4°W
Report Text: KAEX 220253Z 14008KT 10SM OVC095 17/09 A3023 RMK AO2 SLP240 T01670094 53012
Loading
Personal Weather Stations






























Interactive Weather Map New forecast layout! Learn more

10-Day Weather Forecast

Advertisements
Track Severe Weather on mobile